Time;durP1;ratioP1;P1;durP2;ratioP2;P2;SDS_P1;SDS_P2;PMS_P1;PMS_P2;Temp;Humidity;BMP_temperature;BMP_pressure;BME280_temperature;BME280_humidity;BME280_pressure;Samples;Min_cycle;Max_cycle;Signal;HPM_P1;HPM_P2
2023/01/14 00:00:20;;;;;;;37.47;5.50;;;;;;;;;;5011669;28;20042;-72
2023/01/14 00:02:46;;;;;;;41.20;6.25;;;;;;;;;;5011907;28;20046;-72
2023/01/14 00:05:12;;;;;;;43.17;6.13;;;;;;;;;;5011479;28;20095;-72
2023/01/14 00:07:38;;;;;;;46.25;5.95;;;;;;;;;;5012243;28;20041;-73
2023/01/14 00:10:04;;;;;;;43.75;5.38;;;;;;;;;;5015374;28;20088;-78
2023/01/14 00:12:30;;;;;;;42.70;4.53;;;;;;;;;;5015409;28;20041;-78
2023/01/14 00:14:57;;;;;;;37.42;4.57;;;;;;;;;;5015142;28;20052;-79
2023/01/14 00:17:23;;;;;;;52.95;5.20;;;;;;;;;;5015226;28;20045;-78
2023/01/14 00:19:49;;;;;;;50.13;6.18;;;;;;;;;;5015743;28;20506;-78
2023/01/14 00:22:15;;;;;;;41.30;4.72;;;;;;;;;;4983984;28;20053;-78
2023/01/14 00:24:41;;;;;;;49.13;5.72;;;;;;;;;;5015964;28;20104;-78
2023/01/14 00:27:07;;;;;;;34.88;5.18;;;;;;;;;;5015853;28;20041;-78
2023/01/14 00:29:34;;;;;;;42.45;5.95;;;7.60;99.90;;;;;;5015534;28;20095;-78
2023/01/14 00:32:04;;;;;;;48.47;5.88;;;7.60;99.90;;;;;;4998844;28;20069;-78
2023/01/14 00:34:31;;;;;;;37.45;5.35;;;;;;;;;;5014733;28;20041;-78
2023/01/14 00:36:57;;;;;;;38.85;5.38;;;7.70;99.90;;;;;;5014922;28;20044;-78
2023/01/14 00:39:24;;;;;;;39.45;6.75;;;7.90;99.90;;;;;;5019441;28;20038;-78
2023/01/14 00:41:50;;;;;;;43.53;6.72;;;;;;;;;;5017809;28;20047;-78
2023/01/14 00:44:17;;;;;;;53.92;6.20;;;;;;;;;;5033327;28;20110;-78
2023/01/14 00:46:43;;;;;;;35.00;4.43;;;;;;;;;;5033720;28;20049;-77
2023/01/14 00:49:21;;;;;;;34.90;5.03;;;7.80;99.90;;;;;;5017831;28;20045;-78
2023/01/14 00:51:47;;;;;;;54.00;6.05;;;;;;;;;;5033989;28;20037;-78
2023/01/14 00:54:14;;;;;;;49.80;7.13;;;;;;;;;;5017510;28;20044;-78
2023/01/14 00:56:40;;;;;;;41.08;5.53;;;;;;;;;;5033668;28;20053;-78
2023/01/14 00:59:07;;;;;;;67.38;7.65;;;;;;;;;;5034002;28;20045;-78
2023/01/14 01:01:33;;;;;;;59.42;6.72;;;;;;;;;;5034054;28;20041;-78
2023/01/14 01:03:59;;;;;;;40.15;7.55;;;;;;;;;;5034084;28;20367;-78
2023/01/14 01:06:27;;;;;;;37.95;4.97;;;7.60;99.90;;;;;;5050746;28;20041;-77
2023/01/14 01:09:00;;;;;;;38.70;5.47;;;7.70;99.90;;;;;;5034395;28;20059;-78
2023/01/14 01:11:27;;;;;;;49.83;6.57;;;7.80;99.90;;;;;;5033772;28;20041;-78
2023/01/14 01:13:57;;;;;;;46.95;5.15;;;7.70;99.90;;;;;;5034065;28;20046;-78
2023/01/14 01:16:24;;;;;;;51.85;5.57;;;8.10;99.90;;;;;;5033674;28;20041;-78
2023/01/14 01:18:56;;;;;;;48.08;4.65;;;7.80;99.90;;;;;;5033505;28;20045;-78
2023/01/14 01:21:23;;;;;;;53.10;4.80;;;7.70;99.90;;;;;;5033585;28;20489;-78
2023/01/14 01:23:49;;;;;;;39.42;6.18;;;;;;;;;;5033789;28;20037;-79
2023/01/14 01:26:24;;;;;;;38.40;6.45;;;;;;;;;;5018203;28;20041;-78
2023/01/14 01:28:54;;;;;;;56.63;5.57;;;7.80;99.90;;;;;;5033665;28;20049;-78
2023/01/14 01:31:21;;;;;;;48.13;5.57;;;;;;;;;;5033246;28;20073;-78
2023/01/14 01:33:47;;;;;;;37.47;5.35;;;8.00;99.90;;;;;;5033412;28;20582;-78
2023/01/14 01:36:14;;;;;;;52.97;8.05;;;;;;;;;;5017171;28;20033;-78
2023/01/14 01:38:40;;;;;;;57.00;6.47;;;;;;;;;;5034686;28;20041;-78
2023/01/14 01:41:07;;;;;;;53.58;6.88;;;;;;;;;;5033622;28;20423;-78
2023/01/14 01:43:33;;;;;;;68.68;6.47;;;;;;;;;;5033529;28;20041;-78
2023/01/14 01:46:00;;;;;;;48.85;5.90;;;;;;;;;;5032740;28;20409;-78
2023/01/14 01:48:33;;;;;;;52.15;6.32;;;7.90;99.90;;;;;;5033118;28;20041;-78
2023/01/14 01:51:14;;;;;;;54.63;6.53;;;7.80;99.90;;;;;;5033091;28;20041;-78
2023/01/14 01:53:42;;;;;;;47.92;5.53;;;;;;;;;;5033045;28;20057;-78
2023/01/14 01:56:13;;;;;;;58.20;8.15;;;7.80;99.90;;;;;;5033184;28;20037;-78
2023/01/14 01:58:39;;;;;;;56.60;7.80;;;7.70;99.90;;;;;;5032846;28;20163;-78
2023/01/14 02:01:05;;;;;;;65.28;6.72;;;;;;;;;;5016410;28;20048;-77
2023/01/14 02:03:41;;;;;;;57.30;6.57;;;7.80;99.90;;;;;;5032805;28;20041;-77
2023/01/14 02:06:08;;;;;;;42.72;5.53;;;;;;;;;;5032616;28;20046;-78
2023/01/14 02:08:36;;;;;;;51.33;5.90;;;7.90;99.90;;;;;;5032699;28;20037;-77
2023/01/14 02:11:05;;;;;;;51.30;5.80;;;;;;;;;;5032543;28;20494;-77
2023/01/14 02:13:41;;;;;;;55.70;7.65;;;7.90;99.90;;;;;;5032682;28;20080;-77
2023/01/14 02:16:10;;;;;;;47.25;6.80;;;;;;;;;;5032715;28;20489;-78
2023/01/14 02:18:36;;;;;;;51.10;5.85;;;;;;;;;;5032621;28;20072;-78
2023/01/14 02:21:07;;;;;;;31.63;4.82;;;;;;;;;;5032759;28;20100;-77
2023/01/14 02:23:54;;;;;;;33.40;4.93;;;7.60;99.90;;;;;;5032559;28;20052;-78
2023/01/14 02:26:32;;;;;;;43.47;5.55;;;;;;;;;;5032445;28;20128;-77
2023/01/14 02:29:35;;;;;;;55.45;5.60;;;7.70;99.90;;;;;;5032262;28;20073;-77
2023/01/14 02:32:01;;;;;;;;;;;7.70;99.90;;;;;;5032206;28;20520;-77
2023/01/14 02:34:54;;;;;;;40.83;4.82;;;7.70;99.90;;;;;;5032186;28;20011;-77
2023/01/14 02:37:34;;;;;;;;;;;7.60;99.90;;;;;;5016219;28;20038;-76
2023/01/14 02:40:08;;;;;;;41.42;4.68;;;7.70;99.90;;;;;;5032333;28;19917;-76
2023/01/14 02:45:38;;;;;;;28.27;3.78;;;;;;;;;;5031892;28;20504;-76
2023/01/14 02:48:05;;;;;;;43.47;5.07;;;7.60;99.90;;;;;;5032143;28;20482;-77
2023/01/14 02:50:32;;;;;;;61.42;5.47;;;;;;;;;;5032051;28;20056;-77
2023/01/14 02:52:58;;;;;;;38.88;4.88;;;;;;;;;;5031942;28;20056;-77
2023/01/14 02:55:42;;;;;;;47.17;6.20;;;7.60;99.90;;;;;;5032081;28;20482;-77
2023/01/14 02:58:20;;;;;;;38.33;4.47;;;;;;;;;;5015860;28;20081;-76
2023/01/14 03:01:37;;;;;;;38.25;3.97;;;7.60;99.90;;;;;;5032273;28;20048;-76
2023/01/14 03:04:29;;;;;;;37.97;4.65;;;7.70;99.90;;;;;;4994823;28;20084;-77
2023/01/14 03:06:55;;;;;;;32.38;5.28;;;;;;;;;;5048753;28;20077;-77
2023/01/14 03:09:43;;;;;;;35.00;5.75;;;7.60;99.90;;;;;;5031908;28;20486;-77
2023/01/14 03:12:09;;;;;;;34.92;4.32;;;;;;;;;;5031762;28;20096;-77
2023/01/14 03:14:48;;;;;;;43.05;6.38;;;;;;;;;;5031767;28;20050;-77
2023/01/14 03:17:23;;;;;;;45.20;4.80;;;7.50;99.90;;;;;;5031699;28;20128;-77
2023/01/14 03:20:16;;;;;;;34.88;4.65;;;7.40;99.90;;;;;;5031680;28;20080;-76
2023/01/14 03:22:42;;;;;;;38.00;3.75;;;;;;;;;;5031764;28;20045;-76
2023/01/14 03:25:10;;;;;;;35.22;3.95;;;7.30;99.90;;;;;;5031663;28;20379;-76
2023/01/14 03:27:37;;;;;;;38.03;4.13;;;;;;;;;;5031896;28;20046;-76
2023/01/14 03:30:10;;;;;;;42.00;5.13;;;7.40;99.90;;;;;;5031838;28;20044;-76
2023/01/14 03:32:39;;;;;;;39.70;3.85;;;;;;;;;;5014095;28;20064;-76
2023/01/14 03:35:21;;;;;;;42.80;5.80;;;7.30;99.90;;;;;;5031659;28;20037;-76
2023/01/14 03:38:15;;;;;;;38.72;5.70;;;7.20;99.90;;;;;;5031950;28;20053;-76
2023/01/14 03:40:42;;;;;;;39.20;3.92;;;;;;;;;;5016053;28;20096;-76
2023/01/14 03:43:17;;;;;;;26.05;3.95;;;;;;;;;;5023936;28;20049;-75
2023/01/14 03:45:43;;;;;;;33.47;3.90;;;;;;;;;;5034925;28;20061;-75
2023/01/14 03:48:09;;;;;;;38.30;3.97;;;7.00;99.90;;;;;;5035046;28;20116;-75
2023/01/14 03:50:58;;;;;;;38.55;4.13;;;7.10;99.90;;;;;;5018786;28;20038;-75
2023/01/14 03:53:33;;;;;;;37.53;4.20;;;;;;;;;;5016561;28;20053;-76
2023/01/14 03:56:46;;;;;;;39.38;4.63;;;7.10;99.90;;;;;;5018796;28;20137;-76
2023/01/14 03:59:20;;;;;;;45.47;4.43;;;6.90;99.90;;;;;;5035409;28;20432;-76
2023/01/14 04:01:49;;;;;;;32.95;4.93;;;6.60;99.90;;;;;;5034794;28;20041;-75
2023/01/14 04:04:16;;;;;;;37.97;4.57;;;6.80;99.90;;;;;;5018685;28;20362;-76
2023/01/14 04:06:42;;;;;;;43.22;3.90;;;;;;;;;;5034996;28;20033;-76
2023/01/14 04:09:09;;;;;;;42.58;5.10;;;6.80;99.90;;;;;;5034774;28;20505;-76
2023/01/14 04:11:35;;;;;;;37.33;5.03;;;;;;;;;;5034882;28;20037;-76
2023/01/14 04:17:03;;;;;;;39.25;4.35;;;;;;;;;;4967039;28;20047;-76
2023/01/14 04:19:29;;;;;;;47.08;4.80;;;;;;;;;;5010469;28;20453;-76
2023/01/14 04:21:55;;;;;;;43.38;4.75;;;;;;;;;;5018182;28;20046;-76
2023/01/14 04:24:21;;;;;;;36.85;3.75;;;;;;;;;;5018142;28;20041;-76
2023/01/14 04:26:47;;;;;;;48.80;4.70;;;;;;;;;;5034734;28;20038;-76
2023/01/14 04:29:13;;;;;;;21.98;3.58;;;;;;;;;;5034306;28;20033;-76
2023/01/14 04:31:39;;;;;;;27.98;4.45;;;;;;;;;;5017991;28;20071;-76
2023/01/14 04:34:06;;;;;;;29.52;4.28;;;;;;;;;;5034273;28;20067;-76
2023/01/14 04:36:32;;;;;;;30.98;3.95;;;;;;;;;;5035748;28;20038;-76
2023/01/14 04:38:58;;;;;;;51.97;4.68;;;;;;;;;;5034112;28;20128;-76
2023/01/14 04:44:08;;;;;;;34.30;4.78;;;;;;;;;;5032057;28;20563;-76
2023/01/14 04:46:34;;;;;;;34.95;3.92;;;;;;;;;;5034078;28;20085;-76
2023/01/14 04:49:01;;;;;;;35.53;4.90;;;;;;;;;;5034120;28;20481;-76
2023/01/14 04:51:27;;;;;;;37.40;4.10;;;;;;;;;;5034562;28;20033;-76
2023/01/14 04:53:54;;;;;;;52.10;6.03;;;;;;;;;;5015658;28;20040;-76
2023/01/14 04:56:20;;;;;;;41.45;4.05;;;;;;;;;;5032851;28;20095;-75
2023/01/14 04:58:47;;;;;;;37.67;4.28;;;;;;;;;;5034156;28;20048;-75
2023/01/14 05:01:13;;;;;;;33.45;4.63;;;;;;;;;;5050469;28;20117;-76
2023/01/14 05:03:41;;;;;;;33.13;3.90;;;;;;;;;;5040091;28;20056;-76
2023/01/14 05:06:07;;;;;;;42.97;6.30;;;7.00;99.90;;;;;;5035322;28;20077;-76
2023/01/14 05:08:33;;;;;;;41.78;4.03;;;;;;;;;;5033738;28;20427;-75
2023/01/14 05:10:59;;;;;;;34.28;5.07;;;;;;;;;;5033708;28;20048;-71
2023/01/14 05:13:25;;;;;;;41.60;5.95;;;;;;;;;;5033798;28;20037;-71
2023/01/14 05:15:51;;;;;;;49.33;3.97;;;;;;;;;;5016984;28;20049;-71
2023/01/14 05:18:18;;;;;;;39.28;5.00;;;;;;;;;;5033375;28;20049;-71
2023/01/14 05:20:45;;;;;;;43.00;4.55;;;6.60;99.90;;;;;;5033511;28;20049;-71
2023/01/14 05:23:15;;;;;;;23.55;3.50;;;;;;;;;;5033446;28;20045;-72
2023/01/14 05:25:42;;;;;;;28.77;4.22;;;;;;;;;;5033334;28;20390;-71
2023/01/14 05:28:10;;;;;;;47.50;5.72;;;;;;;;;;5033331;28;20398;-71
2023/01/14 05:30:36;;;;;;;44.70;4.82;;;;;;;;;;5033023;28;20037;-72
2023/01/14 05:33:02;;;;;;;47.45;4.82;;;;;;;;;;5033313;28;20091;-72
2023/01/14 05:35:28;;;;;;;41.90;6.60;;;;;;;;;;5016616;28;20044;-72
2023/01/14 05:37:54;;;;;;;34.83;5.15;;;;;;;;;;5033463;28;20041;-72
2023/01/14 05:40:20;;;;;;;38.20;5.18;;;;;;;;;;5033007;28;20083;-72
2023/01/14 05:45:48;;;;;;;41.53;5.15;;;;;;;;;;5032611;28;20045;-72
2023/01/14 05:48:18;;;;;;;33.22;4.20;;;;;;;;;;5032924;28;20124;-72
2023/01/14 05:50:44;;;;;;;36.53;4.40;;;;;;;;;;5016251;28;20092;-71
2023/01/14 05:53:10;;;;;;;40.50;4.20;;;;;;;;;;5016454;28;20037;-72
2023/01/14 05:55:37;;;;;;;41.83;5.25;;;;;;;;;;5016420;28;20042;-72
2023/01/14 05:58:05;;;;;;;34.60;5.22;;;6.70;99.90;;;;;;5016257;28;20045;-71
2023/01/14 06:08:32;;;;;;;40.60;4.55;;;;;;;;;;5032629;28;20041;-71
2023/01/14 06:11:00;;;;;;;38.70;5.40;;;6.50;99.90;;;;;;5032669;28;20107;-71
2023/01/14 06:13:27;;;;;;;44.95;5.70;;;;;;;;;;5032386;28;20048;-71
2023/01/14 06:15:55;;;;;;;49.15;6.13;;;;;;;;;;5032385;28;20045;-71
2023/01/14 06:18:23;;;;;;;33.28;5.28;;;6.30;99.90;;;;;;5016165;28;20110;-71
2023/01/14 06:20:53;;;;;;;38.10;4.95;;;;;;;;;;5032340;28;20403;-71
2023/01/14 06:23:21;;;;;;;42.65;5.35;;;6.50;99.90;;;;;;5015688;28;20085;-70
2023/01/14 06:25:48;;;;;;;43.83;6.82;;;;;;;;;;5031133;28;20111;-71
2023/01/14 06:28:14;;;;;;;38.70;5.85;;;;;;;;;;5048774;28;20037;-71
2023/01/14 06:30:40;;;;;;;40.78;6.15;;;;;;;;;;5032239;28;20041;-71
2023/01/14 06:33:07;;;;;;;39.20;6.03;;;;;;;;;;5032228;28;20493;-71
2023/01/14 06:35:34;;;;;;;48.10;6.68;;;;;;;;;;5031000;28;20045;-71
2023/01/14 06:38:00;;;;;;;41.28;5.70;;;;;;;;;;5012715;28;20042;-71
2023/01/14 06:40:26;;;;;;;55.17;7.60;;;;;;;;;;4998467;28;20045;-70
2023/01/14 06:42:55;;;;;;;46.30;7.05;;;6.30;99.90;;;;;;5015637;28;20495;-71
2023/01/14 06:45:22;;;;;;;39.15;6.75;;;;;;;;;;5031697;28;20490;-71
2023/01/14 06:47:48;;;;;;;30.88;5.30;;;;;;;;;;5032341;28;20352;-71
2023/01/14 06:50:17;;;;;;;37.97;5.57;;;;;;;;;;5032079;28;20116;-71
2023/01/14 06:52:43;;;;;;;46.08;7.68;;;;;;;;;;5012437;28;20048;-71
2023/01/14 06:55:09;;;;;;;34.00;5.28;;;;;;;;;;5028718;28;20528;-71
2023/01/14 06:57:35;;;;;;;42.63;6.72;;;;;;;;;;5047760;28;20128;-71
2023/01/14 07:00:01;;;;;;;56.00;8.63;;;;;;;;;;5032085;28;20037;-71
2023/01/14 07:02:27;;;;;;;43.17;6.28;;;;;;;;;;5015355;28;20049;-71
2023/01/14 07:04:53;;;;;;;54.38;7.35;;;;;;;;;;5031813;28;20049;-71
2023/01/14 07:07:20;;;;;;;43.90;7.57;;;;;;;;;;5015285;28;20445;-71
2023/01/14 07:09:46;;;;;;;56.38;9.20;;;;;;;;;;5032195;28;20466;-71
2023/01/14 07:12:12;;;;;;;45.47;8.65;;;;;;;;;;5015394;28;20037;-71
2023/01/14 07:14:38;;;;;;;73.22;11.18;;;;;;;;;;5031869;28;20049;-71
2023/01/14 07:17:04;;;;;;;56.20;10.10;;;;;;;;;;5033095;28;20041;-71
2023/01/14 07:19:30;;;;;;;61.50;9.18;;;;;;;;;;5019524;28;20057;-71
2023/01/14 07:21:56;;;;;;;73.45;11.43;;;;;;;;;;5035847;28;20111;-71
2023/01/14 07:24:22;;;;;;;66.82;11.40;;;;;;;;;;5035562;28;20131;-71
2023/01/14 07:26:48;;;;;;;47.45;10.80;;;;;;;;;;5019192;28;20394;-71
2023/01/14 07:29:14;;;;;;;69.80;9.73;;;;;;;;;;5019356;28;20103;-71
2023/01/14 07:31:41;;;;;;;57.30;10.73;;;;;;;;;;5035685;28;20073;-71
2023/01/14 07:34:07;;;;;;;52.90;8.77;;;;;;;;;;5035785;28;20041;-71
2023/01/14 07:36:33;;;;;;;56.50;9.93;;;;;;;;;;5035336;28;20091;-71
2023/01/14 07:38:59;;;;;;;69.15;10.38;;;;;;;;;;5035450;28;20400;-71
2023/01/14 07:41:25;;;;;;;45.20;9.77;;;;;;;;;;5035149;28;20044;-71
2023/01/14 07:43:52;;;;;;;55.67;9.45;;;;;;;;;;5018924;28;20034;-71
2023/01/14 07:46:18;;;;;;;60.88;10.13;;;;;;;;;;5035088;28;20052;-71
2023/01/14 07:48:44;;;;;;;53.05;11.50;;;;;;;;;;5035871;28;20054;-71
2023/01/14 07:51:11;;;;;;;61.85;9.60;;;6.50;99.90;;;;;;5034920;28;20131;-71
2023/01/14 07:53:38;;;;;;;60.20;10.40;;;;;;;;;;5019777;28;20029;-71
2023/01/14 07:56:04;;;;;;;55.53;8.88;;;;;;;;;;5018700;28;20037;-71
2023/01/14 07:58:31;;;;;;;55.83;8.93;;;;;;;;;;5044382;28;20041;-71
2023/01/14 08:00:57;;;;;;;46.70;9.35;;;;;;;;;;5044988;28;20044;-75
2023/01/14 08:03:24;;;;;;;62.63;9.85;;;;;;;;;;5012184;28;20040;-75
2023/01/14 08:05:50;;;;;;;49.10;10.02;;;;;;;;;;5043179;28;20038;-75
2023/01/14 08:08:17;;;;;;;47.85;7.85;;;;;;;;;;5044651;28;20076;-75
2023/01/14 08:10:43;;;;;;;49.63;8.18;;;;;;;;;;5028591;28;20044;-74
2023/01/14 08:13:13;;;;;;;51.88;7.00;;;;;;;;;;5042840;28;20045;-74
2023/01/14 08:15:39;;;;;;;54.83;8.13;;;;;;;;;;5027888;28;20052;-75
2023/01/14 08:18:05;;;;;;;46.55;7.53;;;;;;;;;;5043629;28;20033;-74
2023/01/14 08:20:31;;;;;;;42.08;7.13;;;;;;;;;;5028510;28;20037;-75
2023/01/14 08:23:00;;;;;;;41.20;7.72;;;6.50;99.90;;;;;;5020682;28;20048;-75
2023/01/14 08:25:27;;;;;;;39.72;6.65;;;;;;;;;;5034654;28;20053;-74
2023/01/14 08:27:54;;;;;;;59.83;8.02;;;;;;;;;;5034374;28;20126;-74
2023/01/14 08:30:20;;;;;;;47.63;6.80;;;6.40;99.90;;;;;;5033803;28;20519;-71
2023/01/14 08:32:50;;;;;;;37.70;7.25;;;;;;;;;;5034723;28;20047;-71
2023/01/14 08:35:16;;;;;;;41.70;7.60;;;;;;;;;;5018284;28;20041;-70
2023/01/14 08:37:42;;;;;;;54.75;8.63;;;;;;;;;;5018172;28;20052;-70
2023/01/14 08:40:08;;;;;;;46.35;6.72;;;7.40;99.90;;;;;;5034420;28;20103;-70
2023/01/14 08:42:34;;;;;;;35.92;6.32;;;;;;;;;;5034485;28;20056;-70
2023/01/14 08:45:01;;;;;;;51.83;6.55;;;;;;;;;;5034215;28;20050;-70
2023/01/14 08:47:29;;;;;;;44.90;6.70;;;;;;;;;;5017648;28;20043;-70
2023/01/14 08:49:55;;;;;;;50.83;5.57;;;;;;;;;;5017684;28;20103;-70
2023/01/14 08:52:21;;;;;;;39.38;6.70;;;;;;;;;;5033876;28;20512;-70
2023/01/14 08:54:47;;;;;;;45.28;5.85;;;;;;;;;;5034211;28;20045;-70
2023/01/14 08:57:13;;;;;;;37.08;6.35;;;;;;;;;;5033726;28;20079;-70
2023/01/14 08:59:39;;;;;;;39.60;5.82;;;;;;;;;;5023338;28;20037;-70
2023/01/14 09:02:05;;;;;;;45.88;7.20;;;;;;;;;;5044475;28;20071;-70
2023/01/14 09:04:31;;;;;;;37.88;6.10;;;;;;;;;;5051045;28;20420;-71
2023/01/14 09:18:01;;;;;;;39.17;6.28;;;;;;;;;;5033598;28;20049;-71
2023/01/14 09:20:39;;;;;;;35.33;5.43;;;6.50;99.90;;;;;;5033785;28;20382;-70
2023/01/14 09:23:07;;;;;;;33.08;6.10;;;;;;;;;;5050156;28;20037;-70
2023/01/14 09:25:33;;;;;;;30.70;6.35;;;;;;;;;;5033531;28;20079;-75
2023/01/14 09:27:59;;;;;;;39.42;6.25;;;;;;;;;;5014801;28;20091;-70
2023/01/14 09:30:26;;;;;;;52.10;6.47;;;;;;;;;;5033585;28;20112;-70
2023/01/14 09:32:52;;;;;;;40.65;7.13;;;;;;;;;;5032950;28;20037;-70
2023/01/14 09:35:18;;;;;;;35.92;7.05;;;;;;;;;;5033260;28;20045;-70
2023/01/14 09:37:44;;;;;;;39.28;7.22;;;;;;;;;;5033058;28;20049;-70
2023/01/14 09:40:13;;;;;;;42.78;6.75;;;6.00;99.90;;;;;;5016686;28;20045;-70
2023/01/14 09:42:44;;;;;;;36.53;5.50;;;;;;;;;;5033123;28;20114;-71
2023/01/14 09:45:23;;;;;;;33.10;6.10;;;;;;;;;;5032763;28;20061;-70
2023/01/14 09:47:49;;;;;;;28.25;4.20;;;;;;;;;;5043020;28;20081;-70
2023/01/14 09:50:17;;;;;;;23.17;5.07;;;;;;;;;;5033468;28;20045;-70
2023/01/14 09:52:54;;;;;;;29.48;4.55;;;;;;;;;;5032890;28;20065;-70
2023/01/14 09:55:25;;;;;;;30.48;5.25;;;;;;;;;;5032881;28;20124;-70
2023/01/14 09:58:00;;;;;;;28.10;4.72;;;6.50;99.90;;;;;;5032584;28;20061;-70
2023/01/14 10:00:26;;;;;;;27.40;5.10;;;;;;;;;;5016721;28;20444;-70
2023/01/14 10:03:18;;;;;;;23.70;4.25;;;6.60;99.90;;;;;;5032825;28;20056;-70
2023/01/14 10:06:06;;;;;;;22.83;4.60;;;;;;;;;;5032693;28;20049;-70
2023/01/14 10:08:38;;;;;;;19.48;4.60;;;6.70;99.90;;;;;;5032424;28;20124;-70
2023/01/14 10:11:07;;;;;;;21.48;4.93;;;;;;;;;;5042640;28;20030;-70
2023/01/14 10:13:36;;;;;;;30.85;5.13;;;;;;;;;;5023676;28;20044;-70
2023/01/14 10:16:04;;;;;;;22.52;4.90;;;6.70;99.90;;;;;;5042976;28;20541;-70
2023/01/14 10:18:39;;;;;;;20.30;4.32;;;;;;;;;;5054354;28;20119;-76
2023/01/14 10:21:28;;;;;;;13.05;4.90;;;6.70;99.90;;;;;;5043477;28;20077;-76
2023/01/14 10:23:54;;;;;;;29.95;6.95;;;;;;;;;;5017058;28;20041;-75
2023/01/14 10:26:22;;;;;;;23.95;4.90;;;;;;;;;;5043693;28;20065;-75
2023/01/14 10:28:50;;;;;;;20.45;4.38;;;6.90;99.90;;;;;;5038283;28;20567;-75
2023/01/14 10:31:22;;;;;;;19.17;4.40;;;;;;;;;;5041940;28;20068;-76
2023/01/14 10:33:49;;;;;;;25.42;4.50;;;;;;;;;;5040825;28;20056;-75
2023/01/14 10:36:19;;;;;;;24.38;5.43;;;;;;;;;;5025849;28;20041;-76
2023/01/14 10:38:45;;;;;;;14.73;4.15;;;;;;;;;;5043154;28;20404;-76
2023/01/14 10:41:13;;;;;;;17.75;4.43;;;6.80;99.90;;;;;;5040960;28;20052;-76
2023/01/14 10:43:44;;;;;;;13.30;4.43;;;;;;;;;;5041729;28;20366;-75
2023/01/14 10:46:18;;;;;;;15.90;4.10;;;;;;;;;;5037111;28;20102;-75
2023/01/14 10:48:54;;;;;;;18.52;3.85;;;;;;;;;;5042838;28;20048;-76
2023/01/14 10:51:52;;;;;;;11.80;3.78;;;6.90;99.90;;;;;;5056699;28;20044;-74
2023/01/14 10:54:22;;;;;;;14.80;3.90;;;;;;;;;;5024840;28;20037;-76
2023/01/14 10:56:53;;;;;;;14.75;3.67;;;;;;;;;;5040320;28;20034;-75
2023/01/14 10:59:25;;;;;;;15.27;4.10;;;;;;;;;;5041728;28;20421;-76
2023/01/14 11:01:52;;;;;;;13.88;3.67;;;;;;;;;;5054604;28;20042;-75
2023/01/14 11:04:25;;;;;;;12.02;4.10;;;7.10;99.90;;;;;;5041988;28;20061;-75
2023/01/14 11:06:52;;;;;;;8.05;3.65;;;;;;;;;;5038327;28;20044;-75
2023/01/14 11:09:21;;;;;;;14.13;4.00;;;7.10;99.90;;;;;;5025712;28;20033;-75
2023/01/14 11:11:48;;;;;;;10.13;4.65;;;;;;;;;;5042179;28;20124;-75
2023/01/14 11:14:31;;;;;;;12.27;3.72;;;7.10;99.90;;;;;;5041886;28;20393;-70
2023/01/14 11:16:57;;;;;;;15.52;4.15;;;;;;;;;;5036053;28;20448;-70
2023/01/14 11:19:27;;;;;;;13.68;3.78;;;;;;;;;;5041106;28;20077;-70
2023/01/14 11:22:00;;;;;;;12.43;3.60;;;7.10;99.90;;;;;;5038470;28;20393;-70
2023/01/14 11:24:46;;;;;;;11.93;3.70;;;7.10;99.90;;;;;;5041823;28;20520;-69
2023/01/14 11:27:22;;;;;;;11.23;3.72;;;6.90;99.90;;;;;;5037576;28;20041;-70
2023/01/14 11:29:55;;;;;;;10.80;4.72;;;7.10;99.90;;;;;;5040528;28;20359;-73
2023/01/14 11:32:26;;;;;;;12.57;4.22;;;;;;;;;;5041436;28;20116;-70
2023/01/14 11:34:52;;;;;;;12.52;4.18;;;;;;;;;;5020521;28;20033;-70
2023/01/14 11:37:18;;;;;;;5.30;3.55;;;;;;;;;;5022726;28;20083;-70
2023/01/14 11:39:49;;;;;;;8.40;3.92;;;;;;;;;;5041478;28;20064;-76
2023/01/14 11:42:27;;;;;;;15.30;4.28;;;;;;;;;;5056509;28;20153;-76
2023/01/14 11:44:58;;;;;;;12.73;4.28;;;;;;;;;;5054707;28;20482;-76
2023/01/14 11:47:26;;;;;;;12.70;3.85;;;;;;;;;;5024003;28;20094;-76
2023/01/14 11:50:30;;;;;;;6.38;3.67;;;7.40;99.90;;;;;;5040168;28;20042;-76
2023/01/14 11:53:16;;;;;;;7.35;4.32;;;7.30;99.90;;;;;;5003614;28;20034;-75
2023/01/14 11:55:44;;;;;;;6.75;3.80;;;7.40;99.90;;;;;;5039447;28;20049;-76
2023/01/14 11:58:16;;;;;;;13.13;4.22;;;;;;;;;;5039863;28;20080;-73
2023/01/14 12:00:45;;;;;;;14.38;4.97;;;7.20;99.90;;;;;;5042786;28;20042;-73
2023/01/14 12:03:36;;;;;;;11.40;4.00;;;7.20;99.90;;;;;;5038061;28;20148;-76
2023/01/14 12:06:04;;;;;;;11.25;3.70;;;;;;;;;;5030772;28;20102;-76
2023/01/14 12:08:33;;;;;;;9.63;3.50;;;7.50;99.90;;;;;;5036024;28;20493;-74
2023/01/14 12:11:02;;;;;;;9.88;3.53;;;7.30;99.90;;;;;;5035299;28;20120;-75
2023/01/14 12:16:49;;;;;;;13.13;4.47;;;7.50;99.90;;;;;;5033656;28;20124;-76
2023/01/14 12:19:32;;;;;;;7.10;3.53;;;;;;;;;;5018506;28;20056;-75
2023/01/14 12:22:25;;;;;;;11.35;4.85;;;7.60;99.90;;;;;;5034954;28;20037;-75
2023/01/14 12:24:51;;;;;;;;;;;;;;;;;;5035192;28;20183;-75
2023/01/14 12:27:41;;;;;;;6.10;3.67;;;;;;;;;;5035079;28;20003;-76
2023/01/14 12:30:25;;;;;;;7.82;3.30;;;7.70;99.90;;;;;;5034993;28;20434;-76
2023/01/14 12:33:03;;;;;;;7.13;3.88;;;;;;;;;;5034741;28;20048;-75
2023/01/14 12:35:33;;;;;;;7.00;3.22;;;;;;;;;;5034836;28;20060;-75
2023/01/14 12:45:41;;;;;;;11.15;3.65;;;7.70;99.90;;;;;;5034717;28;20211;-76
2023/01/14 12:46:35;;;;;;;14.18;3.05;;;;;;;;;;5034314;28;20115;-76
2023/01/14 12:49:01;;;;;;;7.47;3.00;;;;;;;;;;5001726;28;20037;-76
2023/01/14 12:51:32;;;;;;;6.43;3.15;;;;;;;;;;5034387;28;20052;-76
2023/01/14 12:54:01;;;;;;;6.80;2.92;;;;;;;;;;5034168;28;20033;-75
2023/01/14 12:56:42;;;;;;;11.52;4.30;;;8.00;99.90;;;;;;5034219;28;20041;-76
2023/01/14 12:59:27;;;;;;;5.35;2.78;;;;;;;;;;5034658;28;20049;-76
2023/01/14 13:02:08;;;;;;;9.52;3.42;;;8.20;99.90;;;;;;5034624;28;20037;-76
2023/01/14 13:04:34;;;;;;;7.50;3.05;;;;;;;;;;5034471;28;20103;-76
2023/01/14 13:07:04;;;;;;;8.63;3.00;;;8.20;99.90;;;;;;5034245;28;20437;-76
2023/01/14 13:09:35;;;;;;;4.82;3.28;;;;;;;;;;5034018;28;20038;-76
2023/01/14 13:12:01;;;;;;;6.15;2.72;;;;;;;;;;5035216;28;20060;-70
2023/01/14 13:14:35;;;;;;;7.80;2.88;;;8.40;99.90;;;;;;5033017;28;20050;-70
2023/01/14 13:17:35;;;;;;;5.68;2.83;;;8.40;99.90;;;;;;5033907;28;20073;-70
2023/01/14 13:20:07;;;;;;;4.28;2.83;;;;;;;;;;5033888;28;20049;-70
2023/01/14 13:22:43;;;;;;;4.97;3.15;;;8.40;99.90;;;;;;5033666;28;20096;-70
2023/01/14 13:25:28;;;;;;;7.57;3.13;;;;;;;;;;5033731;28;20045;-70
2023/01/14 13:27:54;;;;;;;6.80;3.25;;;;;;;;;;5033618;28;20045;-76
2023/01/14 13:30:20;;;;;;;6.65;3.42;;;;;;;;;;5034127;28;20385;-76
2023/01/14 13:33:02;;;;;;;7.28;3.58;;;;;;;;;;5033892;28;20120;-76
2023/01/14 13:35:38;;;;;;;6.82;3.58;;;8.50;99.90;;;;;;5033860;28;20045;-76
2023/01/14 13:38:18;;;;;;;5.93;3.35;;;8.50;99.90;;;;;;5033441;28;20045;-76
2023/01/14 13:40:50;;;;;;;6.95;3.85;;;8.60;99.90;;;;;;5033357;28;20046;-76
2023/01/14 13:43:24;;;;;;;8.45;3.90;;;8.70;99.90;;;;;;5033443;28;20129;-76
2023/01/14 13:45:55;;;;;;;13.27;4.22;;;8.50;99.90;;;;;;5033265;28;20056;-76
2023/01/14 13:48:33;;;;;;;8.88;3.75;;;8.80;99.90;;;;;;5049991;28;20103;-76
2023/01/14 13:51:38;;;;;;;6.07;4.07;;;8.90;99.90;;;;;;5033069;28;20038;-76
2023/01/14 13:54:10;;;;;;;11.55;4.00;;;;;;;;;;5013204;28;20050;-76
2023/01/14 13:56:41;;;;;;;5.82;3.90;;;8.90;99.90;;;;;;5033177;28;20481;-75
2023/01/14 13:59:15;;;;;;;6.72;3.60;;;;;;;;;;5032931;28;20406;-76
2023/01/14 14:01:41;;;;;;;5.38;3.90;;;;;;;;;;5033100;28;20644;-76
2023/01/14 14:04:10;;;;;;;10.57;4.70;;;9.00;99.90;;;;;;5034506;28;20042;-76
2023/01/14 14:06:37;;;;;;;8.13;4.60;;;;;;;;;;5000404;28;20132;-76
2023/01/14 14:09:06;;;;;;;9.40;4.15;;;;;;;;;;5033208;28;20107;-77
2023/01/14 14:11:46;;;;;;;4.15;3.40;;;9.00;99.90;;;;;;5032950;28;20094;-75
2023/01/14 14:14:16;;;;;;;11.75;4.60;;;;;;;;;;5032785;28;20045;-76
2023/01/14 14:16:42;;;;;;;4.82;3.75;;;;;;;;;;5032960;28;20202;-76
2023/01/14 14:19:08;;;;;;;6.90;3.35;;;;;;;;;;5032508;28;20048;-76
2023/01/14 14:22:13;;;;;;;7.35;4.05;;;8.90;99.90;;;;;;5032599;28;20059;-76
2023/01/14 14:24:46;;;;;;;7.95;4.60;;;;;;;;;;5032432;28;20513;-76
2023/01/14 14:27:15;;;;;;;7.00;3.97;;;;;;;;;;5031895;28;20044;-76
2023/01/14 14:29:44;;;;;;;8.25;3.90;;;9.00;99.90;;;;;;5032354;28;20037;-76
2023/01/14 14:32:26;;;;;;;7.50;3.97;;;9.10;99.90;;;;;;5032641;28;20052;-76
2023/01/14 14:35:05;;;;;;;5.72;4.00;;;;;;;;;;5032987;28;20530;-76
2023/01/14 14:37:34;;;;;;;9.52;3.97;;;;;;;;;;5033110;28;20069;-76
2023/01/14 14:40:05;;;;;;;5.95;4.18;;;;;;;;;;5033331;28;20076;-75
2023/01/14 14:42:32;;;;;;;9.50;4.35;;;;;;;;;;5035625;28;20084;-76
2023/01/14 14:44:59;;;;;;;5.35;3.95;;;9.20;99.90;;;;;;5034042;28;20107;-76
2023/01/14 14:47:26;;;;;;;7.45;4.03;;;;;;;;;;5033933;28;20100;-75
2023/01/14 14:49:53;;;;;;;6.25;4.38;;;;;;;;;;5050043;28;20501;-76
2023/01/14 14:52:19;;;;;;;5.53;3.92;;;;;;;;;;5032336;28;20083;-76
2023/01/14 14:55:03;;;;;;;10.13;4.78;;;9.30;99.90;;;;;;5032538;28;20092;-76